createdAt,value
2023-01-06T00:00:47.300Z,3.22
2023-01-06T00:03:14.162Z,2.30
2023-01-06T00:05:40.882Z,2.03
2023-01-06T00:08:07.669Z,1.75
2023-01-06T00:10:34.497Z,1.70
2023-01-06T00:13:01.332Z,1.90
2023-01-06T00:15:28.325Z,1.63
2023-01-06T00:17:55.371Z,2.60
2023-01-06T00:20:22.112Z,2.03
2023-01-06T00:22:48.837Z,2.72
2023-01-06T00:25:15.657Z,2.20
2023-01-06T00:27:42.397Z,2.20
2023-01-06T00:30:09.932Z,2.38
2023-01-06T00:32:36.877Z,2.03
2023-01-06T00:35:03.985Z,3.05
2023-01-06T00:37:30.900Z,2.25
2023-01-06T00:39:57.801Z,2.22
2023-01-06T00:42:24.971Z,2.50
2023-01-06T00:44:52.339Z,2.17
2023-01-06T00:47:20.110Z,1.73
2023-01-06T00:49:47.671Z,2.42
2023-01-06T00:52:15.029Z,2.60
2023-01-06T00:54:43.016Z,2.55
2023-01-06T00:57:11.326Z,2.38
2023-01-06T00:59:38.172Z,2.22
2023-01-06T01:02:05.351Z,2.50
2023-01-06T01:04:32.324Z,1.75
2023-01-06T01:06:59.439Z,4.70
2023-01-06T01:09:31.243Z,2.50
2023-01-06T01:12:11.665Z,2.15
2023-01-06T01:14:46.912Z,2.30
2023-01-06T01:17:17.697Z,2.17
2023-01-06T01:19:44.940Z,2.50
2023-01-06T01:22:12.450Z,2.08
2023-01-06T01:24:39.560Z,2.13
2023-01-06T01:27:06.856Z,2.22
2023-01-06T01:29:33.925Z,2.20
2023-01-06T01:32:01.026Z,2.58
2023-01-06T01:34:27.952Z,2.05
2023-01-06T01:36:55.429Z,3.58
2023-01-06T01:39:24.688Z,1.98
2023-01-06T01:41:52.193Z,2.63
2023-01-06T01:44:54.181Z,2.20
2023-01-06T01:47:30.021Z,2.22
2023-01-06T01:50:02.081Z,2.50
2023-01-06T01:52:29.457Z,2.88
2023-01-06T01:54:56.997Z,1.88
2023-01-06T01:57:33.381Z,2.35
2023-01-06T02:00:01.470Z,2.50
2023-01-06T02:02:31.836Z,2.55
2023-01-06T02:05:00.091Z,2.70
2023-01-06T02:07:27.524Z,2.47
2023-01-06T02:10:09.607Z,2.40
2023-01-06T02:12:36.986Z,5.00
2023-01-06T02:15:13.516Z,2.85
2023-01-06T02:18:14.810Z,2.33
2023-01-06T02:21:39.089Z,1.80
2023-01-06T02:24:25.859Z,2.60
2023-01-06T02:27:25.259Z,2.20
2023-01-06T02:30:11.546Z,2.58
2023-01-06T02:33:04.000Z,2.58
2023-01-06T02:35:50.963Z,3.00
2023-01-06T02:38:44.584Z,2.58
2023-01-06T02:41:43.641Z,3.67
2023-01-06T02:44:16.455Z,2.90
2023-01-06T02:47:12.495Z,2.90
2023-01-06T02:49:58.272Z,2.10
2023-01-06T02:52:31.325Z,2.38
2023-01-06T02:55:16.604Z,2.67
2023-01-06T02:57:49.421Z,2.58
2023-01-06T03:00:24.794Z,2.20
2023-01-06T03:02:59.705Z,3.33
2023-01-06T03:05:28.421Z,2.63
2023-01-06T03:07:57.534Z,2.78
2023-01-06T03:10:26.648Z,2.00
2023-01-06T03:13:00.410Z,2.58
2023-01-06T03:15:27.326Z,2.30
2023-01-06T03:17:54.569Z,2.50
2023-01-06T03:20:21.706Z,2.25
2023-01-06T03:22:48.776Z,2.10
2023-01-06T03:25:15.764Z,1.98
2023-01-06T03:27:42.706Z,1.80
2023-01-06T03:30:12.265Z,2.08
2023-01-06T03:33:02.972Z,2.15
2023-01-06T03:35:47.315Z,1.60
2023-01-06T03:38:33.600Z,1.30
2023-01-06T03:41:20.931Z,1.60
2023-01-06T03:44:05.923Z,6.93
2023-01-06T03:46:40.618Z,1.95
2023-01-06T03:49:33.357Z,1.48
2023-01-06T03:52:24.674Z,1.60
2023-01-06T03:55:05.790Z,1.77
2023-01-06T03:57:39.995Z,1.30
2023-01-06T04:00:17.255Z,1.80
2023-01-06T04:02:46.029Z,1.55
2023-01-06T04:05:23.781Z,1.48
2023-01-06T04:07:50.652Z,3.50
2023-01-06T04:10:19.404Z,1.95
2023-01-06T04:12:46.683Z,1.55
2023-01-06T04:15:19.158Z,2.10
2023-01-06T04:17:47.135Z,1.90
2023-01-06T04:20:17.432Z,2.45
2023-01-06T04:22:44.312Z,2.42
2023-01-06T04:25:11.378Z,2.05
2023-01-06T04:27:38.187Z,1.98
2023-01-06T04:30:07.056Z,2.78
2023-01-06T04:32:34.077Z,2.75
2023-01-06T04:35:00.840Z,1.80
2023-01-06T04:37:27.623Z,2.13
2023-01-06T04:39:54.392Z,3.20
2023-01-06T04:42:21.251Z,2.20
2023-01-06T04:44:48.005Z,2.55
2023-01-06T04:47:14.783Z,2.63
2023-01-06T04:49:41.757Z,3.20
2023-01-06T04:52:08.998Z,2.67
2023-01-06T04:54:36.650Z,2.05
2023-01-06T04:57:03.675Z,1.85
2023-01-06T04:59:30.539Z,1.83
2023-01-06T05:01:57.332Z,2.60
2023-01-06T05:04:24.132Z,3.63
2023-01-06T05:06:51.442Z,2.63
2023-01-06T05:09:18.181Z,2.60
2023-01-06T05:11:45.161Z,2.33
2023-01-06T05:14:12.173Z,2.10
2023-01-06T05:16:39.908Z,2.30
2023-01-06T05:19:06.782Z,2.08
2023-01-06T05:21:33.558Z,1.88
2023-01-06T05:24:00.569Z,2.30
2023-01-06T05:26:28.448Z,1.95
2023-01-06T05:28:56.040Z,1.73
2023-01-06T05:31:23.200Z,2.67
2023-01-06T05:33:50.170Z,2.20
2023-01-06T05:36:18.295Z,2.20
2023-01-06T05:38:45.877Z,2.45
2023-01-06T05:41:12.694Z,2.03
2023-01-06T05:43:39.788Z,2.22
2023-01-06T05:46:09.165Z,2.35
2023-01-06T05:48:36.552Z,2.95
2023-01-06T05:51:08.905Z,2.78
2023-01-06T05:53:37.926Z,1.95
2023-01-06T05:56:06.687Z,2.80
2023-01-06T05:58:34.071Z,2.80
2023-01-06T06:01:02.430Z,2.30
2023-01-06T06:03:29.387Z,3.00
2023-01-06T06:05:56.243Z,3.08
2023-01-06T06:08:23.009Z,3.45
2023-01-06T06:10:49.811Z,2.42
2023-01-06T06:13:17.740Z,2.90
2023-01-06T06:15:44.528Z,2.53
2023-01-06T06:18:11.397Z,2.67
2023-01-06T06:20:38.185Z,2.22
2023-01-06T06:23:04.961Z,1.52
2023-01-06T06:25:32.242Z,3.85
2023-01-06T06:27:59.623Z,2.22
2023-01-06T06:30:26.415Z,1.90
2023-01-06T06:32:53.249Z,2.33
2023-01-06T06:35:19.998Z,1.88
2023-01-06T06:37:46.824Z,2.35
2023-01-06T06:40:13.670Z,1.70
2023-01-06T06:42:40.473Z,2.45
2023-01-06T06:45:07.745Z,1.80
2023-01-06T06:47:34.495Z,2.10
2023-01-06T06:50:01.292Z,4.47
2023-01-06T06:52:28.050Z,2.15
2023-01-06T06:54:54.883Z,2.75
2023-01-06T06:57:21.714Z,3.58
2023-01-06T06:59:48.532Z,5.07
2023-01-06T07:02:15.493Z,3.08
2023-01-06T07:04:42.363Z,2.50
2023-01-06T07:07:09.171Z,1.95
2023-01-06T07:09:35.912Z,2.90
2023-01-06T07:12:03.129Z,2.40
2023-01-06T07:14:29.902Z,2.38
2023-01-06T07:17:01.079Z,3.10
2023-01-06T07:19:28.331Z,4.40
2023-01-06T07:21:55.089Z,2.30
2023-01-06T07:24:21.879Z,2.50
2023-01-06T07:26:48.676Z,2.85
2023-01-06T07:29:15.527Z,2.33
2023-01-06T07:31:42.324Z,2.33
2023-01-06T07:34:09.093Z,2.20
2023-01-06T07:36:35.841Z,3.10
2023-01-06T07:39:02.633Z,2.63
2023-01-06T07:41:31.568Z,2.08
2023-01-06T07:43:58.423Z,3.72
2023-01-06T07:46:25.246Z,2.53
2023-01-06T07:48:52.027Z,2.83
2023-01-06T07:51:18.814Z,4.50
2023-01-06T07:53:45.683Z,2.50
2023-01-06T07:56:12.534Z,3.20
2023-01-06T07:58:39.310Z,3.17
2023-01-06T08:01:07.706Z,5.05
2023-01-06T08:03:34.747Z,2.13
2023-01-06T08:06:07.258Z,3.05
2023-01-06T08:08:36.579Z,3.22
2023-01-06T08:11:03.817Z,2.95
2023-01-06T08:13:30.721Z,2.55
2023-01-06T08:15:57.575Z,4.00
2023-01-06T08:18:24.437Z,3.08
2023-01-06T08:20:51.235Z,3.05
2023-01-06T08:23:18.128Z,2.58
2023-01-06T08:25:44.893Z,2.20
2023-01-06T08:28:11.643Z,2.45
2023-01-06T08:30:40.206Z,2.42
2023-01-06T08:33:07.131Z,2.28
2023-01-06T08:35:33.881Z,2.45
2023-01-06T08:38:00.619Z,3.20
2023-01-06T08:40:27.487Z,4.35
2023-01-06T08:42:54.295Z,2.70
2023-01-06T08:45:21.058Z,2.95
2023-01-06T08:47:47.878Z,2.22
2023-01-06T08:50:14.696Z,2.70
2023-01-06T08:52:41.494Z,3.22
2023-01-06T08:55:08.376Z,4.15
2023-01-06T08:57:35.198Z,2.95
2023-01-06T09:00:02.795Z,4.38
2023-01-06T09:02:31.507Z,3.38
2023-01-06T09:04:58.361Z,3.25
2023-01-06T09:07:25.274Z,3.15
2023-01-06T09:09:52.106Z,3.53
2023-01-06T09:12:18.890Z,3.55
2023-01-06T09:14:45.707Z,4.20
2023-01-06T09:17:12.508Z,3.08
2023-01-06T09:19:39.396Z,2.38
2023-01-06T09:22:07.253Z,2.85
2023-01-06T09:24:34.219Z,3.00
2023-01-06T09:27:01.298Z,2.90
2023-01-06T09:29:28.086Z,2.67
2023-01-06T09:31:54.882Z,3.20
2023-01-06T09:34:21.705Z,3.00
2023-01-06T09:36:48.548Z,2.85
2023-01-06T09:39:15.475Z,3.05
2023-01-06T09:41:51.311Z,3.17
2023-01-06T09:44:24.605Z,3.75
2023-01-06T09:46:51.988Z,4.97
2023-01-06T09:49:47.028Z,2.95
2023-01-06T09:52:24.368Z,2.30
2023-01-06T09:54:58.041Z,3.00
2023-01-06T09:57:36.838Z,4.05
2023-01-06T10:00:31.355Z,2.83
2023-01-06T10:02:58.270Z,2.25
2023-01-06T10:05:43.825Z,2.50
2023-01-06T10:08:16.251Z,3.88
2023-01-06T10:11:04.780Z,3.55
2023-01-06T10:13:37.465Z,3.13
2023-01-06T10:16:20.004Z,2.85
2023-01-06T10:19:19.214Z,3.30
2023-01-06T10:22:04.901Z,2.72
2023-01-06T10:24:36.827Z,5.35
2023-01-06T10:27:36.299Z,2.80
2023-01-06T10:30:07.363Z,3.33
2023-01-06T10:32:36.676Z,2.75
2023-01-06T10:35:03.994Z,3.20
2023-01-06T10:37:40.259Z,2.90
2023-01-06T10:40:20.534Z,3.15
2023-01-06T10:42:57.909Z,3.65
2023-01-06T10:45:40.241Z,3.38
2023-01-06T10:48:26.887Z,2.70
2023-01-06T10:50:56.213Z,3.10
2023-01-06T10:53:23.866Z,3.28
2023-01-06T10:55:55.594Z,3.10
2023-01-06T10:58:33.239Z,3.90
2023-01-06T11:01:06.739Z,3.10
2023-01-06T11:03:34.888Z,4.40
2023-01-06T11:06:10.731Z,5.25
2023-01-06T11:08:39.658Z,2.95
2023-01-06T11:11:27.622Z,3.50
2023-01-06T11:13:59.477Z,6.18
2023-01-06T11:16:30.419Z,3.03
2023-01-06T11:19:00.905Z,3.38
2023-01-06T11:21:40.691Z,3.20
2023-01-06T11:24:20.334Z,3.53
2023-01-06T11:26:53.822Z,2.80
2023-01-06T11:29:32.639Z,3.90
2023-01-06T11:32:28.462Z,4.35
2023-01-06T11:35:03.592Z,3.40
2023-01-06T11:37:35.767Z,3.67
2023-01-06T11:40:13.497Z,4.45
2023-01-06T11:45:43.612Z,3.85
2023-01-06T11:48:19.884Z,4.55
2023-01-06T11:50:55.682Z,4.10
2023-01-06T11:53:24.662Z,3.60
2023-01-06T11:56:01.158Z,3.38
2023-01-06T11:58:51.910Z,3.10
2023-01-06T12:01:43.548Z,3.75
2023-01-06T12:04:36.196Z,3.50
2023-01-06T12:07:28.895Z,3.50
2023-01-06T12:09:59.830Z,3.20
2023-01-06T12:12:28.254Z,4.18
2023-01-06T12:14:56.063Z,2.85
2023-01-06T12:17:50.918Z,3.60
2023-01-06T12:20:27.425Z,4.90
2023-01-06T12:23:00.789Z,3.08
2023-01-06T12:25:38.007Z,3.22
2023-01-06T12:28:13.868Z,3.35
2023-01-06T12:31:15.517Z,4.43
2023-01-06T12:33:49.514Z,3.00
2023-01-06T12:36:31.233Z,3.42
2023-01-06T12:39:05.626Z,3.35
2023-01-06T12:41:41.219Z,3.40
2023-01-06T12:44:26.103Z,5.07
2023-01-06T12:47:14.968Z,3.22
2023-01-06T12:49:50.280Z,5.35
2023-01-06T12:52:27.926Z,5.30
2023-01-06T12:54:58.322Z,3.67
2023-01-06T12:57:46.748Z,3.13
2023-01-06T13:00:19.500Z,3.35
2023-01-06T13:03:17.970Z,3.83
2023-01-06T13:06:03.144Z,4.15
2023-01-06T13:08:48.747Z,6.15
2023-01-06T13:11:30.882Z,3.90
2023-01-06T13:14:35.928Z,3.40
2023-01-06T13:17:13.574Z,6.45
2023-01-06T13:19:54.700Z,3.33
2023-01-06T13:22:55.465Z,4.88
2023-01-06T13:25:25.293Z,4.70
2023-01-06T13:28:00.600Z,5.47
2023-01-06T13:30:58.184Z,3.47
2023-01-06T13:33:48.995Z,4.25
2023-01-06T13:36:23.513Z,2.90
2023-01-06T13:39:06.530Z,5.07
2023-01-06T13:41:40.836Z,3.13
2023-01-06T13:44:17.035Z,4.63
2023-01-06T13:46:45.382Z,3.60
2023-01-06T13:49:13.440Z,5.63
2023-01-06T13:51:42.456Z,5.60
2023-01-06T13:54:41.142Z,4.03
2023-01-06T13:57:23.099Z,3.70
2023-01-06T14:00:05.137Z,5.85
2023-01-06T14:02:35.103Z,3.42
2023-01-06T14:05:07.545Z,6.80
2023-01-06T14:07:38.699Z,6.07
2023-01-06T14:10:29.907Z,5.93
2023-01-06T14:12:56.986Z,7.28
2023-01-06T14:15:32.286Z,4.88
2023-01-06T14:18:01.557Z,6.97
2023-01-06T14:20:37.309Z,4.70
2023-01-06T14:23:16.306Z,6.28
2023-01-06T14:25:49.249Z,7.10
2023-01-06T14:28:22.255Z,7.40
2023-01-06T14:30:50.508Z,5.43
2023-01-06T14:33:29.350Z,9.27
2023-01-06T14:36:12.710Z,8.07
2023-01-06T14:38:47.331Z,8.10
2023-01-06T14:41:43.521Z,7.90
2023-01-06T14:44:29.251Z,7.22
2023-01-06T14:47:02.353Z,11.18
2023-01-06T14:49:46.103Z,9.23
2023-01-06T14:52:19.053Z,9.48
2023-01-06T14:54:48.011Z,6.82
2023-01-06T14:57:34.956Z,12.45
2023-01-06T15:00:30.069Z,12.82
2023-01-06T15:02:59.140Z,13.77
2023-01-06T15:05:31.625Z,10.68
2023-01-06T15:08:02.784Z,12.00
2023-01-06T15:10:34.222Z,10.88
2023-01-06T15:13:02.502Z,18.88
2023-01-06T15:15:32.296Z,15.35
2023-01-06T15:18:01.832Z,10.63
2023-01-06T15:20:35.243Z,13.55
2023-01-06T15:23:02.913Z,14.95
2023-01-06T15:25:31.894Z,12.88
2023-01-06T15:27:58.706Z,15.15
2023-01-06T15:30:28.424Z,17.40
2023-01-06T15:32:56.599Z,13.00
2023-01-06T15:35:27.730Z,13.02
2023-01-06T15:38:24.385Z,16.02
2023-01-06T15:40:52.567Z,10.60
2023-01-06T15:43:23.188Z,8.63
2023-01-06T15:46:01.126Z,13.50
2023-01-06T15:48:31.204Z,12.07
2023-01-06T15:50:58.049Z,13.13
2023-01-06T15:53:32.194Z,15.60
2023-01-06T15:56:00.957Z,15.02
2023-01-06T15:58:37.335Z,9.85
2023-01-06T16:01:13.265Z,11.98
2023-01-06T16:03:40.455Z,14.02
2023-01-06T16:06:13.121Z,9.05
2023-01-06T16:08:41.699Z,9.63
2023-01-06T16:11:17.358Z,10.32
2023-01-06T16:13:58.549Z,9.38
2023-01-06T16:16:31.694Z,10.95
2023-01-06T16:18:58.906Z,10.80
2023-01-06T16:21:32.074Z,11.80
2023-01-06T16:24:01.428Z,10.40
2023-01-06T16:26:33.636Z,9.75
2023-01-06T16:29:02.934Z,9.88
2023-01-06T16:31:33.373Z,11.90
2023-01-06T16:34:27.552Z,10.57
2023-01-06T16:36:57.252Z,11.43
2023-01-06T16:39:24.581Z,17.10
2023-01-06T16:42:00.263Z,14.00
2023-01-06T16:44:32.107Z,13.55
2023-01-06T16:46:59.963Z,14.55
2023-01-06T16:49:28.331Z,12.80
2023-01-06T16:51:55.115Z,15.95
2023-01-06T16:54:22.663Z,13.40
2023-01-06T16:56:52.472Z,15.65
2023-01-06T16:59:22.235Z,17.40
2023-01-06T17:01:49.404Z,17.05
2023-01-06T17:04:16.631Z,16.95
2023-01-06T17:06:45.600Z,19.63
2023-01-06T17:09:23.384Z,20.17
2023-01-06T17:11:52.976Z,19.75
2023-01-06T17:14:22.095Z,13.93
2023-01-06T17:16:50.708Z,18.83
2023-01-06T17:19:28.524Z,19.70
2023-01-06T17:22:14.629Z,18.80
2023-01-06T17:24:41.442Z,17.52
2023-01-06T17:27:20.585Z,16.35
2023-01-06T17:29:47.928Z,18.20
2023-01-06T17:32:21.312Z,19.23
2023-01-06T17:34:48.506Z,19.52
2023-01-06T17:37:25.906Z,20.20
2023-01-06T17:39:53.200Z,20.27
2023-01-06T17:42:30.674Z,22.95
2023-01-06T17:44:59.588Z,19.23
2023-01-06T17:47:39.381Z,16.05
2023-01-06T17:50:33.757Z,18.60
2023-01-06T17:53:48.848Z,16.67
2023-01-06T17:56:15.962Z,14.80
2023-01-06T17:58:44.468Z,18.58
2023-01-06T18:01:22.378Z,16.65
2023-01-06T18:03:50.629Z,18.05
2023-01-06T18:06:27.737Z,17.58
2023-01-06T18:09:01.936Z,15.63
2023-01-06T18:11:35.212Z,17.50
2023-01-06T18:14:15.345Z,19.95
2023-01-06T18:16:46.232Z,15.88
2023-01-06T18:19:40.003Z,17.85
2023-01-06T18:22:17.643Z,20.15
2023-01-06T18:24:46.913Z,23.50
2023-01-06T18:27:22.832Z,18.27
2023-01-06T18:29:50.483Z,19.48
2023-01-06T18:32:32.499Z,15.52
2023-01-06T18:35:23.227Z,17.08
2023-01-06T18:37:50.987Z,19.15
2023-01-06T18:40:25.818Z,20.90
2023-01-06T18:42:54.356Z,15.95
2023-01-06T18:45:27.827Z,20.77
2023-01-06T18:48:32.927Z,18.15
2023-01-06T18:51:01.713Z,18.52
2023-01-06T18:53:30.307Z,15.48
2023-01-06T18:56:00.831Z,18.13
2023-01-06T18:58:46.193Z,15.75
2023-01-06T19:01:27.484Z,14.25
2023-01-06T19:04:05.627Z,18.60
2023-01-06T19:06:35.915Z,18.65
2023-01-06T19:09:21.346Z,20.85
2023-01-06T19:11:55.237Z,18.80
2023-01-06T19:14:22.008Z,17.10
2023-01-06T19:16:56.721Z,16.55
2023-01-06T19:19:31.121Z,19.17
2023-01-06T19:22:09.650Z,19.17
2023-01-06T19:24:41.254Z,20.50
2023-01-06T19:27:34.682Z,19.33
2023-01-06T19:30:13.713Z,15.13
2023-01-06T19:32:41.313Z,15.93
2023-01-06T19:35:30.160Z,13.65
2023-01-06T19:38:02.620Z,13.25
2023-01-06T19:40:31.142Z,13.43
2023-01-06T19:43:12.712Z,17.27
2023-01-06T19:45:39.526Z,15.57
2023-01-06T19:48:30.912Z,18.23
2023-01-06T19:51:36.344Z,16.70
2023-01-06T19:54:15.716Z,14.93
2023-01-06T19:56:43.151Z,15.25
2023-01-06T19:59:24.765Z,14.50
2023-01-06T20:02:20.268Z,11.70
2023-01-06T20:04:47.104Z,13.18
2023-01-06T20:07:13.887Z,11.35
2023-01-06T20:09:40.689Z,14.07
2023-01-06T20:12:07.672Z,11.82
2023-01-06T20:14:34.497Z,12.77
2023-01-06T20:17:01.395Z,15.55
2023-01-06T20:19:28.157Z,12.85
2023-01-06T20:21:54.949Z,14.02
2023-01-06T20:24:21.777Z,16.77
2023-01-06T20:26:48.594Z,14.82
2023-01-06T20:29:15.416Z,16.85
2023-01-06T20:31:42.307Z,16.08
2023-01-06T20:34:09.111Z,10.82
2023-01-06T20:36:35.939Z,14.35
2023-01-06T20:39:02.752Z,13.18
2023-01-06T20:41:29.656Z,14.70
2023-01-06T20:43:56.476Z,12.88
2023-01-06T20:46:23.264Z,12.63
2023-01-06T20:48:50.064Z,12.27
2023-01-06T20:51:16.921Z,12.27
2023-01-06T20:53:43.754Z,23.15
2023-01-06T20:56:10.571Z,13.32
2023-01-06T20:58:37.454Z,13.40
2023-01-06T21:01:04.534Z,17.20
2023-01-06T21:03:31.364Z,9.63
2023-01-06T21:05:58.876Z,13.15
2023-01-06T21:08:27.047Z,10.80
2023-01-06T21:10:53.826Z,12.00
2023-01-06T21:13:23.912Z,12.00
2023-01-06T21:15:51.193Z,13.30
2023-01-06T21:18:18.048Z,12.73
2023-01-06T21:20:44.928Z,13.48
2023-01-06T21:23:11.821Z,11.38
2023-01-06T21:25:38.592Z,11.60
2023-01-06T21:28:05.566Z,10.57
2023-01-06T21:30:32.479Z,12.68
2023-01-06T21:32:59.741Z,15.25
2023-01-06T21:35:26.536Z,13.55
2023-01-06T21:37:53.342Z,11.75
2023-01-06T21:40:20.086Z,13.40
2023-01-06T21:43:05.651Z,13.48
2023-01-06T21:45:32.663Z,17.55
2023-01-06T21:47:59.427Z,12.75
2023-01-06T21:50:27.055Z,16.33
2023-01-06T21:52:54.687Z,15.20
2023-01-06T21:55:21.946Z,14.57
2023-01-06T21:57:49.017Z,20.85
2023-01-06T22:00:16.606Z,17.38
2023-01-06T22:02:46.099Z,13.95
2023-01-06T22:05:13.471Z,13.70
2023-01-06T22:07:44.798Z,16.23
2023-01-06T22:10:14.204Z,16.33
2023-01-06T22:12:44.286Z,13.48
2023-01-06T22:15:12.405Z,14.95
2023-01-06T22:17:39.627Z,14.85
2023-01-06T22:20:07.601Z,16.65
2023-01-06T22:22:36.035Z,13.10
2023-01-06T22:25:04.322Z,17.90
2023-01-06T22:27:31.122Z,19.70
2023-01-06T22:29:58.042Z,17.08
2023-01-06T22:32:24.847Z,15.23
2023-01-06T22:34:51.635Z,22.48
2023-01-06T22:37:18.534Z,16.80
2023-01-06T22:39:46.664Z,16.48
2023-01-06T22:42:13.463Z,15.48
2023-01-06T22:44:40.357Z,15.68
2023-01-06T22:47:07.238Z,15.93
2023-01-06T22:49:33.991Z,14.60
2023-01-06T22:52:00.747Z,21.25
2023-01-06T22:54:27.557Z,19.02
2023-01-06T22:56:54.483Z,15.93
2023-01-06T22:59:21.350Z,19.05
2023-01-06T23:01:48.280Z,16.27
2023-01-06T23:04:15.135Z,14.98
2023-01-06T23:06:42.212Z,16.05
2023-01-06T23:09:09.181Z,18.85
2023-01-06T23:11:41.521Z,13.80
2023-01-06T23:14:10.465Z,19.02
2023-01-06T23:16:40.081Z,16.10
2023-01-06T23:19:09.860Z,18.60
2023-01-06T23:21:36.852Z,25.55
2023-01-06T23:24:03.895Z,15.80
2023-01-06T23:26:35.005Z,17.70
2023-01-06T23:29:01.955Z,20.15
2023-01-06T23:31:38.193Z,18.77
2023-01-06T23:34:07.988Z,20.10
2023-01-06T23:36:35.758Z,18.13
2023-01-06T23:39:04.340Z,19.90
2023-01-06T23:41:34.127Z,18.38
2023-01-06T23:44:01.699Z,17.27
2023-01-06T23:46:34.222Z,23.42
2023-01-06T23:49:01.356Z,20.23
2023-01-06T23:51:32.265Z,19.25
2023-01-06T23:54:00.226Z,24.40
2023-01-06T23:56:29.204Z,22.00
2023-01-06T23:58:58.328Z,17.85
